createdAt,value
2022-10-18T00:02:42.660Z,14.00
2022-10-18T00:05:46.603Z,13.96
2022-10-18T00:08:49.078Z,13.96
2022-10-18T00:11:52.060Z,13.96
2022-10-18T00:14:54.530Z,13.91
2022-10-18T00:17:57.499Z,13.88
2022-10-18T00:21:02.259Z,13.85
2022-10-18T00:24:05.771Z,13.84
2022-10-18T00:27:08.406Z,13.84
2022-10-18T00:30:11.764Z,13.80
2022-10-18T00:33:14.163Z,13.80
2022-10-18T01:25:50.812Z,13.36
2022-10-18T01:29:21.797Z,13.34
2022-10-18T01:32:31.274Z,13.31
2022-10-18T01:35:40.790Z,13.30
2022-10-18T01:38:45.277Z,13.28
2022-10-18T01:41:51.039Z,13.28
2022-10-18T01:44:54.799Z,13.29
2022-10-18T01:47:59.259Z,13.27
2022-10-18T01:51:03.810Z,13.21
2022-10-18T01:54:06.823Z,13.19
2022-10-18T01:57:35.700Z,13.17
2022-10-18T02:00:42.347Z,13.15
2022-10-18T02:03:48.403Z,13.13
2022-10-18T02:06:58.703Z,13.07
2022-10-18T02:10:06.698Z,13.04
2022-10-18T02:13:13.421Z,13.02
2022-10-18T02:16:39.343Z,13.00
2022-10-18T02:19:50.191Z,13.00
2022-10-18T02:22:55.771Z,12.98
2022-10-18T02:25:58.697Z,12.92
2022-10-18T02:29:01.909Z,12.89
2022-10-18T02:32:10.758Z,12.84
2022-10-18T02:35:34.562Z,12.86
2022-10-18T02:38:38.441Z,12.84
2022-10-18T02:41:41.764Z,12.81
2022-10-18T02:44:44.459Z,12.74
2022-10-18T02:47:47.329Z,12.71
2022-10-18T02:50:49.948Z,12.72
2022-10-18T02:53:52.683Z,12.71
2022-10-18T02:56:55.349Z,12.67
2022-10-18T02:59:58.102Z,12.65
2022-10-18T03:03:01.107Z,12.61
2022-10-18T03:06:04.098Z,12.61
2022-10-18T03:09:07.377Z,12.60
2022-10-18T03:12:10.129Z,12.58
2022-10-18T03:15:12.732Z,12.53
2022-10-18T03:18:15.759Z,12.51
2022-10-18T03:21:18.454Z,12.49
2022-10-18T03:24:21.259Z,12.48
2022-10-18T03:27:23.901Z,12.47
2022-10-18T03:30:26.650Z,12.44
2022-10-18T03:33:29.901Z,12.41
2022-10-18T03:36:33.978Z,12.40
2022-10-18T03:39:36.513Z,12.40
2022-10-18T03:42:39.348Z,12.41
2022-10-18T03:45:43.357Z,12.40
2022-10-18T03:48:46.146Z,12.32
2022-10-18T03:51:49.018Z,12.28
2022-10-18T03:54:51.796Z,12.30
2022-10-18T03:57:54.503Z,12.24
2022-10-18T04:00:57.259Z,12.21
2022-10-18T04:04:00.180Z,12.21
2022-10-18T04:07:02.607Z,12.19
2022-10-18T04:10:06.193Z,12.16
2022-10-18T04:13:08.896Z,12.12
2022-10-18T04:16:11.831Z,12.16
2022-10-18T04:19:14.391Z,12.14
2022-10-18T04:22:17.445Z,12.14
2022-10-18T04:25:19.940Z,12.12
2022-10-18T04:28:22.800Z,12.13
2022-10-18T04:31:25.565Z,12.13
2022-10-18T04:34:28.483Z,12.09
2022-10-18T04:37:31.408Z,12.07
2022-10-18T04:40:34.909Z,12.07
2022-10-18T04:43:37.594Z,12.07
2022-10-18T04:46:40.450Z,12.06
2022-10-18T04:49:42.844Z,12.07
2022-10-18T04:52:46.021Z,12.08
2022-10-18T04:55:49.919Z,12.05
2022-10-18T04:58:52.863Z,12.04
2022-10-18T05:01:55.422Z,12.03
2022-10-18T05:04:58.470Z,12.02
2022-10-18T05:08:01.017Z,12.03
2022-10-18T05:11:04.658Z,12.03
2022-10-18T05:14:10.181Z,12.08
2022-10-18T05:17:13.142Z,12.03
2022-10-18T05:20:15.905Z,12.02
2022-10-18T05:23:19.100Z,12.01
2022-10-18T05:26:21.979Z,12.01
2022-10-18T05:29:25.165Z,11.97
2022-10-18T05:32:27.715Z,12.01
2022-10-18T05:35:30.627Z,11.99
2022-10-18T05:38:33.174Z,11.96
2022-10-18T05:41:36.472Z,11.97
2022-10-18T05:44:38.786Z,11.98
2022-10-18T05:47:41.760Z,12.02
2022-10-18T05:50:46.169Z,12.07
2022-10-18T05:53:49.120Z,12.07
2022-10-18T05:56:52.300Z,12.17
2022-10-18T05:59:55.207Z,12.26
2022-10-18T06:03:00.185Z,12.29
2022-10-18T06:06:06.817Z,12.33
2022-10-18T06:09:09.591Z,12.41
2022-10-18T06:12:12.497Z,12.43
2022-10-18T06:15:14.951Z,12.60
2022-10-18T06:18:17.904Z,12.51
2022-10-18T06:21:21.312Z,12.53
2022-10-18T06:24:24.279Z,12.68
2022-10-18T06:27:26.715Z,12.68
2022-10-18T06:30:29.576Z,12.81
2022-10-18T06:33:32.765Z,12.79
2022-10-18T06:36:35.814Z,12.90
2022-10-18T06:39:38.337Z,13.07
2022-10-18T06:42:41.434Z,13.11
2022-10-18T06:45:43.788Z,13.22
2022-10-18T06:48:46.679Z,13.43
2022-10-18T06:51:50.071Z,13.48
2022-10-18T06:54:54.013Z,13.56
2022-10-18T06:57:56.678Z,13.73
2022-10-18T07:00:59.722Z,13.80
2022-10-18T07:04:02.200Z,14.03
2022-10-18T07:07:05.148Z,14.13
2022-10-18T07:10:11.192Z,14.25
2022-10-18T07:13:32.780Z,14.49
2022-10-18T07:16:36.156Z,14.80
2022-10-18T07:19:39.193Z,15.31
2022-10-18T07:22:41.678Z,15.82
2022-10-18T07:25:44.850Z,16.37
2022-10-18T07:28:50.702Z,16.81
2022-10-18T07:31:53.685Z,17.33
2022-10-18T07:34:56.091Z,17.75
2022-10-18T07:37:59.282Z,18.02
2022-10-18T07:41:03.803Z,18.37
2022-10-18T07:44:06.805Z,19.89
2022-10-18T07:47:09.261Z,22.28
2022-10-18T07:50:12.189Z,26.09
2022-10-18T07:53:15.115Z,28.36
2022-10-18T07:56:21.024Z,29.25
2022-10-18T07:59:23.972Z,30.19
2022-10-18T08:02:26.888Z,31.55
2022-10-18T08:05:29.691Z,33.55
2022-10-18T08:08:32.862Z,36.44
2022-10-18T08:11:35.584Z,37.93
2022-10-18T08:14:38.201Z,38.25
2022-10-18T08:17:41.048Z,37.84
2022-10-18T08:20:46.618Z,37.90
2022-10-18T08:23:50.288Z,38.51
2022-10-18T08:26:52.976Z,39.97
2022-10-18T08:29:55.701Z,42.34
2022-10-18T08:32:58.367Z,44.86
2022-10-18T08:36:03.402Z,46.56
2022-10-18T08:39:06.075Z,48.60
2022-10-18T08:42:14.132Z,49.66
2022-10-18T08:45:30.009Z,50.35
2022-10-18T08:48:39.152Z,50.69
2022-10-18T08:51:50.898Z,50.50
2022-10-18T08:55:10.946Z,49.66
2022-10-18T08:58:22.784Z,49.98
2022-10-18T09:01:53.655Z,50.21
2022-10-18T09:05:05.229Z,50.42
2022-10-18T09:08:32.072Z,49.79
2022-10-18T09:11:43.597Z,47.68
2022-10-18T09:15:13.306Z,45.12
2022-10-18T09:18:19.083Z,40.96
2022-10-18T09:21:42.430Z,36.99
2022-10-18T09:24:48.357Z,35.58
2022-10-18T09:27:56.955Z,34.24
2022-10-18T09:31:24.567Z,33.15
2022-10-18T09:34:34.748Z,32.53
2022-10-18T09:37:37.995Z,32.12
2022-10-18T09:41:19.024Z,31.36
2022-10-18T09:44:33.354Z,30.64
2022-10-18T09:47:41.505Z,30.12
2022-10-18T09:50:50.495Z,30.30
2022-10-18T09:53:59.031Z,30.44
2022-10-18T09:57:34.568Z,30.28
2022-10-18T10:00:48.162Z,29.42
2022-10-18T10:03:52.007Z,28.82
2022-10-18T10:06:56.629Z,28.81
2022-10-18T10:10:19.944Z,27.77
2022-10-18T10:13:26.313Z,26.60
2022-10-18T10:16:29.329Z,27.30
2022-10-18T10:19:39.959Z,26.76
2022-10-18T10:22:46.636Z,26.15
2022-10-18T10:25:55.843Z,25.56
2022-10-18T10:28:59.503Z,25.41
2022-10-18T10:32:03.978Z,25.32
2022-10-18T10:35:54.025Z,26.04
2022-10-18T10:39:21.491Z,26.61
2022-10-18T10:42:24.553Z,26.09
2022-10-18T10:45:35.305Z,25.31
2022-10-18T10:48:48.396Z,26.19
2022-10-18T10:52:08.336Z,26.92
2022-10-18T10:55:35.429Z,26.95
2022-10-18T10:58:40.628Z,27.01
2022-10-18T11:01:43.876Z,27.68
2022-10-18T11:04:50.272Z,27.53
2022-10-18T11:07:58.201Z,27.84
2022-10-18T11:11:00.600Z,27.79
2022-10-18T11:14:26.289Z,27.31
2022-10-18T11:17:41.621Z,26.88
2022-10-18T11:20:56.315Z,26.51
2022-10-18T11:24:02.042Z,26.74
2022-10-18T11:27:25.160Z,27.09
2022-10-18T11:30:49.676Z,26.67
2022-10-18T11:34:20.594Z,25.84
2022-10-18T11:37:38.756Z,25.12
2022-10-18T11:40:50.257Z,25.73
2022-10-18T11:44:03.649Z,26.02
2022-10-18T11:47:13.241Z,26.69
2022-10-18T11:50:28.113Z,26.44
2022-10-18T11:53:37.289Z,25.55
2022-10-18T11:56:58.251Z,25.75
2022-10-18T12:00:20.749Z,26.19
2022-10-18T12:03:45.345Z,26.47
2022-10-18T12:06:52.239Z,26.77
2022-10-18T12:09:56.585Z,26.72
2022-10-18T12:13:03.907Z,26.33
2022-10-18T12:16:09.357Z,26.25
2022-10-18T12:19:23.378Z,26.58
2022-10-18T12:22:38.087Z,26.88
2022-10-18T12:25:50.991Z,26.97
2022-10-18T12:29:08.721Z,27.18
2022-10-18T12:32:14.796Z,27.37
2022-10-18T12:35:19.695Z,27.52
2022-10-18T12:38:35.545Z,27.48
2022-10-18T12:41:38.683Z,27.54
2022-10-18T12:44:42.291Z,26.07
2022-10-18T12:47:45.085Z,25.58
2022-10-18T12:50:58.976Z,25.52
2022-10-18T12:54:04.207Z,25.79
2022-10-18T12:57:18.201Z,25.74
2022-10-18T13:00:29.639Z,25.64
2022-10-18T13:03:54.212Z,25.83
2022-10-18T13:06:59.920Z,25.99
2022-10-18T13:10:15.007Z,26.10
2022-10-18T13:13:39.573Z,25.97
2022-10-18T13:16:49.013Z,25.62
2022-10-18T13:20:28.100Z,25.31
2022-10-18T13:23:43.249Z,25.12
2022-10-18T13:27:31.337Z,25.09
2022-10-18T13:30:46.310Z,24.98
2022-10-18T13:33:49.601Z,24.13
2022-10-18T13:37:20.490Z,23.95
2022-10-18T13:40:25.611Z,23.86
2022-10-18T13:43:55.052Z,23.52
2022-10-18T13:46:57.819Z,23.19
2022-10-18T13:50:11.496Z,22.94
2022-10-18T13:53:30.093Z,22.72
2022-10-18T13:56:52.966Z,22.53
2022-10-18T14:00:16.820Z,22.08
2022-10-18T14:03:58.923Z,21.85
2022-10-18T14:07:06.019Z,21.82
2022-10-18T14:10:43.815Z,22.01
2022-10-18T14:14:00.181Z,21.88
2022-10-18T14:17:21.655Z,21.71
2022-10-18T14:20:49.445Z,21.71
2022-10-18T14:24:00.813Z,21.53
2022-10-18T14:27:16.699Z,21.35
2022-10-18T14:30:25.588Z,21.19
2022-10-18T14:33:58.086Z,21.01
2022-10-18T14:37:01.806Z,20.98
2022-10-18T14:40:04.748Z,20.80
2022-10-18T14:43:14.088Z,20.70
2022-10-18T14:46:30.032Z,20.68
2022-10-18T14:49:42.361Z,20.57
2022-10-18T14:52:45.443Z,20.37
2022-10-18T14:55:56.285Z,20.42
2022-10-18T14:59:03.575Z,20.31
2022-10-18T15:02:24.557Z,20.40
2022-10-18T15:05:27.350Z,20.24
2022-10-18T15:08:44.020Z,20.24
2022-10-18T15:11:47.179Z,20.15
2022-10-18T15:14:51.185Z,20.16
2022-10-18T15:17:54.910Z,20.17
2022-10-18T15:21:22.253Z,20.11
2022-10-18T15:24:27.527Z,20.09
2022-10-18T15:27:35.241Z,20.04
2022-10-18T15:30:42.729Z,19.97
2022-10-18T15:33:45.772Z,20.07
2022-10-18T15:36:49.813Z,20.00
2022-10-18T15:40:29.027Z,19.90
2022-10-18T15:43:34.427Z,19.96
2022-10-18T15:46:39.515Z,19.84
2022-10-18T15:49:44.944Z,19.65
2022-10-18T15:52:48.010Z,19.68
2022-10-18T15:55:52.635Z,19.54
2022-10-18T15:58:57.316Z,19.53
2022-10-18T16:01:59.859Z,19.49
2022-10-18T16:05:03.064Z,19.50
2022-10-18T16:08:05.897Z,19.42
2022-10-18T16:11:21.216Z,19.33
2022-10-18T16:14:24.149Z,19.22
2022-10-18T16:17:27.404Z,19.17
2022-10-18T16:20:30.072Z,19.10
2022-10-18T16:23:33.287Z,19.01
2022-10-18T16:26:36.466Z,18.99
2022-10-18T16:29:41.240Z,18.94
2022-10-18T16:32:43.704Z,18.87
2022-10-18T16:35:46.529Z,18.81
2022-10-18T16:38:49.560Z,18.73
2022-10-18T16:41:52.684Z,18.64
2022-10-18T16:44:55.133Z,18.54
2022-10-18T16:47:58.020Z,18.46
2022-10-18T16:51:01.430Z,18.35
2022-10-18T16:54:05.452Z,18.28
2022-10-18T16:57:09.839Z,18.20
2022-10-18T17:00:19.095Z,18.12
2022-10-18T17:03:21.882Z,18.04
2022-10-18T17:06:27.869Z,17.96
2022-10-18T17:09:30.735Z,17.88
2022-10-18T17:12:34.042Z,17.80
2022-10-18T17:15:36.545Z,17.71
2022-10-18T17:18:39.425Z,17.64
2022-10-18T17:21:41.883Z,17.56
2022-10-18T17:24:44.950Z,17.50
2022-10-18T17:27:47.505Z,17.45
2022-10-18T17:30:50.315Z,17.40
2022-10-18T17:33:54.738Z,17.35
2022-10-18T17:36:57.781Z,17.34
2022-10-18T17:40:00.404Z,17.25
2022-10-18T17:43:03.291Z,17.21
2022-10-18T17:46:06.102Z,17.16
2022-10-18T17:49:09.046Z,17.13
2022-10-18T17:52:11.978Z,17.06
2022-10-18T17:55:15.577Z,17.03
2022-10-18T17:58:18.228Z,17.01
2022-10-18T18:01:23.213Z,16.91
2022-10-18T18:04:26.033Z,16.89
2022-10-18T18:07:28.676Z,16.81
2022-10-18T18:10:35.219Z,16.76
2022-10-18T18:13:38.039Z,16.69
2022-10-18T18:16:42.960Z,16.66
2022-10-18T18:19:45.642Z,16.61
2022-10-18T18:22:48.451Z,16.59
2022-10-18T18:25:58.177Z,16.55
2022-10-18T18:32:09.182Z,16.43
2022-10-18T18:35:11.878Z,16.53
2022-10-18T18:38:14.568Z,16.33
2022-10-18T18:41:25.212Z,16.28
2022-10-18T18:44:28.355Z,16.25
2022-10-18T18:47:35.378Z,16.19
2022-10-18T18:50:37.963Z,16.11
2022-10-18T18:53:41.828Z,16.07
2022-10-18T18:56:44.573Z,16.01
2022-10-18T18:59:47.289Z,15.96
2022-10-18T19:02:49.977Z,15.89
2022-10-18T19:06:02.747Z,15.87
2022-10-18T19:09:19.669Z,15.80
2022-10-18T19:12:22.534Z,15.76
2022-10-18T19:15:25.425Z,15.72
2022-10-18T19:18:28.333Z,15.67
2022-10-18T19:21:33.719Z,15.62
2022-10-18T19:24:37.320Z,15.61
2022-10-18T19:27:40.070Z,15.57
2022-10-18T19:30:46.671Z,15.55
2022-10-18T19:33:59.354Z,15.53
2022-10-18T19:37:03.512Z,15.48
2022-10-18T19:40:06.793Z,15.46
2022-10-18T19:43:09.728Z,15.38
2022-10-18T19:46:12.464Z,15.33
2022-10-18T19:49:15.787Z,15.26
2022-10-18T19:52:18.625Z,15.26
2022-10-18T19:55:21.405Z,15.23
2022-10-18T19:58:24.051Z,15.18
2022-10-18T20:01:28.872Z,15.19
2022-10-18T20:04:34.637Z,15.17
2022-10-18T20:07:37.106Z,15.13
2022-10-18T20:10:40.199Z,15.12
2022-10-18T20:13:43.284Z,15.05
2022-10-18T20:16:46.264Z,15.01
2022-10-18T20:19:48.809Z,14.94
2022-10-18T20:22:51.684Z,14.89
2022-10-18T20:25:59.386Z,14.84
2022-10-18T20:29:02.560Z,14.85
2022-10-18T20:32:05.295Z,14.80
2022-10-18T20:35:08.354Z,14.76
2022-10-18T20:38:10.719Z,14.73
2022-10-18T20:41:19.931Z,14.70
2022-10-18T20:44:22.744Z,14.64
2022-10-18T20:47:25.475Z,14.67
2022-10-18T20:50:27.808Z,14.61
2022-10-18T20:53:33.069Z,14.60
2022-10-18T20:56:38.888Z,14.57
2022-10-18T20:59:41.904Z,14.57
2022-10-18T21:02:44.368Z,14.55
2022-10-18T21:05:47.252Z,14.52
2022-10-18T21:08:57.643Z,14.52
2022-10-18T21:12:00.549Z,14.46
2022-10-18T21:15:03.344Z,14.43
2022-10-18T21:18:06.106Z,14.38
2022-10-18T21:21:11.000Z,14.39
2022-10-18T21:24:14.069Z,14.35
2022-10-18T21:27:16.501Z,14.32
2022-10-18T21:30:19.700Z,14.31
2022-10-18T21:33:22.663Z,14.30
2022-10-18T21:36:27.701Z,14.23
2022-10-18T21:39:30.232Z,14.24
2022-10-18T21:42:33.805Z,14.24
2022-10-18T21:45:36.480Z,14.20
2022-10-18T21:48:44.180Z,14.15
2022-10-18T21:51:46.915Z,14.17
2022-10-18T21:54:49.973Z,14.16
2022-10-18T21:57:52.620Z,14.15
2022-10-18T22:00:55.627Z,14.14
2022-10-18T22:04:00.168Z,14.11
2022-10-18T22:07:04.843Z,14.09
2022-10-18T22:10:07.953Z,14.14
2022-10-18T22:13:10.547Z,14.16
2022-10-18T22:16:15.108Z,14.17
2022-10-18T22:19:18.000Z,14.19
2022-10-18T22:22:20.758Z,14.21
2022-10-18T22:25:23.482Z,14.20
2022-10-18T22:28:26.270Z,14.18
2022-10-18T22:31:32.691Z,14.22
2022-10-18T22:34:35.406Z,14.27
2022-10-18T22:37:38.078Z,14.27
2022-10-18T22:40:40.790Z,14.34
2022-10-18T22:43:43.447Z,14.35
2022-10-18T22:46:46.277Z,14.40
2022-10-18T22:49:48.945Z,14.42
2022-10-18T22:52:53.937Z,14.42
2022-10-18T22:55:57.445Z,14.39
2022-10-18T22:59:00.258Z,14.42
2022-10-18T23:02:02.908Z,14.44
2022-10-18T23:05:05.830Z,14.46
2022-10-18T23:08:10.626Z,14.45
2022-10-18T23:11:13.794Z,14.45
2022-10-18T23:14:16.500Z,14.46
2022-10-18T23:17:19.171Z,14.49
2022-10-18T23:20:21.829Z,14.48
2022-10-18T23:23:24.598Z,14.46
2022-10-18T23:26:28.307Z,14.47
2022-10-18T23:29:31.088Z,14.46
2022-10-18T23:32:35.331Z,14.50
2022-10-18T23:35:38.308Z,14.52
2022-10-18T23:38:41.794Z,14.49
2022-10-18T23:41:44.656Z,14.50
2022-10-18T23:44:48.210Z,14.44
2022-10-18T23:47:50.883Z,14.45
2022-10-18T23:50:53.636Z,14.43
2022-10-18T23:53:56.295Z,14.35
2022-10-18T23:56:59.132Z,14.32
